createdAt,value
2022-12-03T00:05:02.993Z,25.08
2022-12-03T00:10:28.044Z,24.63
2022-12-03T00:15:56.053Z,25.52
2022-12-03T00:21:21.077Z,24.55
2022-12-03T00:26:46.000Z,24.45
2022-12-03T00:32:13.002Z,26.33
2022-12-03T00:37:38.025Z,25.80
2022-12-03T00:43:02.009Z,27.60
2022-12-03T00:48:29.996Z,27.20
2022-12-03T00:53:53.995Z,27.55
2022-12-03T00:59:19.080Z,27.98
2022-12-03T01:04:46.052Z,28.00
2022-12-03T01:10:11.024Z,28.27
2022-12-03T01:15:35.045Z,26.90
2022-12-03T01:21:02.995Z,28.25
2022-12-03T01:26:27.156Z,27.20
2022-12-03T01:32:04.024Z,27.67
2022-12-03T01:37:32.102Z,27.60
2022-12-03T01:42:57.049Z,28.30
2022-12-03T01:48:23.174Z,26.90
2022-12-03T01:53:51.034Z,27.63
2022-12-03T01:59:15.010Z,26.92
2022-12-03T02:04:40.023Z,26.83
2022-12-03T02:10:07.024Z,28.27
2022-12-03T02:15:32.065Z,27.73
2022-12-03T02:21:02.054Z,26.80
2022-12-03T02:26:30.063Z,28.23
2022-12-03T02:31:54.142Z,28.60
2022-12-03T02:37:22.057Z,28.45
2022-12-03T02:42:49.069Z,27.08
2022-12-03T02:48:19.215Z,28.70
2022-12-03T02:53:49.081Z,29.10
2022-12-03T02:59:17.068Z,29.10
2022-12-03T03:04:41.061Z,28.70
2022-12-03T03:10:06.095Z,26.83
2022-12-03T03:15:34.068Z,28.42
2022-12-03T03:20:59.057Z,28.30
2022-12-03T03:26:26.132Z,28.92
2022-12-03T03:31:56.137Z,30.20
2022-12-03T03:37:20.073Z,29.80
2022-12-03T03:42:46.079Z,30.60
2022-12-03T03:48:14.056Z,29.17
2022-12-03T03:53:40.178Z,28.63
2022-12-03T03:59:04.272Z,27.92
2022-12-03T04:04:40.183Z,29.63
2022-12-03T04:10:05.141Z,29.08
2022-12-03T04:15:29.068Z,29.08
2022-12-03T04:20:57.094Z,30.25
2022-12-03T04:26:35.209Z,29.30
2022-12-03T04:32:13.142Z,29.35
2022-12-03T04:37:40.196Z,29.30
2022-12-03T04:43:05.070Z,28.95
2022-12-03T04:48:29.078Z,29.20
2022-12-03T04:53:59.075Z,28.92
2022-12-03T04:59:24.102Z,29.67
2022-12-03T05:04:49.177Z,30.90
2022-12-03T05:10:16.103Z,30.17
2022-12-03T05:15:41.076Z,31.52
2022-12-03T05:21:05.119Z,31.52
2022-12-03T05:26:33.119Z,33.28
2022-12-03T05:31:57.105Z,33.80
2022-12-03T05:37:22.127Z,33.30
2022-12-03T05:43:02.209Z,35.30
2022-12-03T05:48:27.118Z,33.30
2022-12-03T05:53:51.125Z,34.03
2022-12-03T05:59:19.126Z,32.40
2022-12-03T06:04:50.143Z,32.80
2022-12-03T06:10:18.108Z,32.03
2022-12-03T06:15:45.176Z,31.17
2022-12-03T06:21:10.161Z,32.72
2022-12-03T06:26:34.206Z,31.38
2022-12-03T06:32:02.135Z,30.50
2022-12-03T06:37:26.119Z,29.75
2022-12-03T06:42:51.139Z,28.33
2022-12-03T06:48:18.143Z,29.88
2022-12-03T06:53:43.139Z,28.27
2022-12-03T06:59:07.132Z,29.25
2022-12-03T07:04:46.084Z,27.80
2022-12-03T07:10:11.147Z,25.98
2022-12-03T07:15:35.132Z,26.35
2022-12-03T07:21:03.166Z,25.40
2022-12-03T07:26:27.163Z,25.83
2022-12-03T07:37:46.158Z,23.55
2022-12-03T07:43:12.271Z,24.35
2022-12-03T07:48:36.160Z,24.35
2022-12-03T07:54:04.164Z,23.77
2022-12-03T07:59:28.201Z,23.77
2022-12-03T08:04:59.152Z,22.55
2022-12-03T08:10:27.222Z,22.73
2022-12-03T08:15:53.284Z,22.92
2022-12-03T08:21:21.144Z,23.25
2022-12-03T08:26:48.151Z,23.67
2022-12-03T08:32:16.336Z,24.83
2022-12-03T08:37:41.216Z,25.48
2022-12-03T08:43:09.186Z,24.17
2022-12-03T08:48:48.633Z,24.52
2022-12-03T08:54:21.169Z,23.45
2022-12-03T08:59:48.192Z,23.48
2022-12-03T09:05:24.212Z,24.30
2022-12-03T09:10:50.177Z,24.75
2022-12-03T09:16:18.233Z,24.80
2022-12-03T09:21:43.165Z,24.80
2022-12-03T09:27:08.188Z,24.95
2022-12-03T09:32:35.237Z,25.35
2022-12-03T09:38:00.202Z,25.25
2022-12-03T09:43:24.549Z,26.27
2022-12-03T09:48:57.197Z,25.77
2022-12-03T09:54:23.204Z,26.38
2022-12-03T09:59:48.203Z,26.45
2022-12-03T10:05:15.255Z,26.48
2022-12-03T10:10:40.224Z,25.70
2022-12-03T10:16:04.245Z,26.08
2022-12-03T10:21:35.283Z,26.23
2022-12-03T10:26:55.221Z,25.95
2022-12-03T10:32:22.199Z,25.15
2022-12-03T10:38:06.249Z,25.38
2022-12-03T10:43:40.233Z,26.10
2022-12-03T10:49:19.226Z,25.35
2022-12-03T10:54:49.212Z,25.92
2022-12-03T11:00:15.221Z,24.73
2022-12-03T11:05:44.611Z,23.27
2022-12-03T11:11:14.237Z,24.85
2022-12-03T11:17:08.253Z,25.15
2022-12-03T11:22:48.224Z,26.58
2022-12-03T11:28:42.227Z,24.40
2022-12-03T11:34:57.250Z,25.27
2022-12-03T11:40:45.259Z,26.38
2022-12-03T11:46:18.254Z,26.48
2022-12-03T11:51:46.226Z,27.08
2022-12-03T11:57:12.230Z,26.30
2022-12-03T12:02:36.258Z,26.90
2022-12-03T12:08:11.269Z,25.67
2022-12-03T12:14:01.254Z,25.35
2022-12-03T12:19:54.510Z,24.90
2022-12-03T12:25:54.452Z,26.27
2022-12-03T12:31:18.260Z,25.98
2022-12-03T12:36:43.250Z,26.25
2022-12-03T12:42:10.273Z,25.52
2022-12-03T12:47:35.415Z,24.52
2022-12-03T12:53:01.286Z,24.70
2022-12-03T12:58:34.289Z,24.90
2022-12-03T13:04:06.332Z,25.30
2022-12-03T13:09:33.264Z,25.10
2022-12-03T13:15:01.278Z,24.17
2022-12-03T13:20:30.289Z,25.05
2022-12-03T13:26:06.589Z,25.55
2022-12-03T13:31:46.466Z,25.25
2022-12-03T13:37:11.303Z,25.48
2022-12-03T13:42:49.254Z,24.38
2022-12-03T13:48:17.261Z,25.75
2022-12-03T13:53:45.292Z,26.85
2022-12-03T13:59:11.289Z,27.83
2022-12-03T14:04:45.285Z,27.15
2022-12-03T14:10:10.286Z,26.75
2022-12-03T14:15:35.307Z,29.08
2022-12-03T14:21:04.301Z,29.70
2022-12-03T14:26:28.366Z,29.63
2022-12-03T14:31:53.310Z,28.60
2022-12-03T14:37:20.335Z,30.30
2022-12-03T14:42:45.299Z,31.45
2022-12-03T14:48:09.349Z,32.40
2022-12-03T14:53:37.301Z,32.03
2022-12-03T14:59:02.295Z,33.35
2022-12-03T15:04:27.326Z,33.08
2022-12-03T15:09:54.561Z,33.65
2022-12-03T15:15:20.345Z,33.20
2022-12-03T15:20:45.316Z,34.13
2022-12-03T15:26:13.316Z,33.45
2022-12-03T15:31:37.349Z,34.30
2022-12-03T15:37:02.361Z,34.42
2022-12-03T15:42:29.318Z,39.78
2022-12-03T15:47:54.345Z,36.53
2022-12-03T15:53:18.297Z,38.90
2022-12-03T15:58:46.304Z,39.28
2022-12-03T16:04:10.338Z,40.25
2022-12-03T16:09:35.326Z,43.03
2022-12-03T16:15:02.328Z,42.88
2022-12-03T16:20:27.357Z,44.75
2022-12-03T16:25:52.328Z,46.58
2022-12-03T16:31:20.408Z,46.15
2022-12-03T16:36:44.333Z,47.05
2022-12-03T16:42:17.578Z,46.90
2022-12-03T16:47:44.365Z,52.58
2022-12-03T16:53:09.354Z,51.50
2022-12-03T16:58:34.357Z,54.05
2022-12-03T17:04:02.344Z,51.80
2022-12-03T17:09:26.431Z,54.08
2022-12-03T17:14:51.337Z,50.00
2022-12-03T17:20:21.369Z,54.08
2022-12-03T17:25:46.353Z,52.97
2022-12-03T17:31:10.392Z,50.80
2022-12-03T17:36:38.361Z,57.90
2022-12-03T17:42:02.376Z,56.17
2022-12-03T17:47:27.365Z,56.30
2022-12-03T17:52:54.463Z,53.03
2022-12-03T17:58:19.399Z,53.42
2022-12-03T18:03:43.447Z,53.22
2022-12-03T18:09:11.361Z,58.90
2022-12-03T18:14:35.480Z,55.47
2022-12-03T18:20:00.366Z,59.42
2022-12-03T18:25:28.378Z,62.38
2022-12-03T18:30:53.389Z,63.33
2022-12-03T18:36:17.379Z,61.58
2022-12-03T18:41:45.374Z,59.78
2022-12-03T18:47:09.575Z,63.60
2022-12-03T18:52:34.395Z,66.85
2022-12-03T18:58:01.400Z,70.05
2022-12-03T19:03:26.435Z,67.78
2022-12-03T19:08:50.366Z,73.07
2022-12-03T19:14:18.372Z,75.45
2022-12-03T19:19:43.389Z,69.07
2022-12-03T19:25:08.412Z,79.85
2022-12-03T19:30:35.421Z,74.78
2022-12-03T19:36:00.467Z,74.93
2022-12-03T19:41:26.450Z,67.75
2022-12-03T19:46:54.409Z,69.35
2022-12-03T19:52:19.429Z,71.15
2022-12-03T19:57:44.397Z,67.93
2022-12-03T20:03:11.491Z,68.30
2022-12-03T20:08:36.411Z,67.78
2022-12-03T20:14:02.392Z,68.32
2022-12-03T20:19:30.402Z,61.42
2022-12-03T20:24:54.399Z,60.17
2022-12-03T20:30:20.399Z,60.50
2022-12-03T20:35:54.433Z,60.95
2022-12-03T20:41:21.426Z,61.70
2022-12-03T20:46:46.441Z,55.25
2022-12-03T20:52:14.506Z,60.33
2022-12-03T20:57:38.454Z,56.38
2022-12-03T21:03:04.472Z,54.25
2022-12-03T21:08:41.029Z,53.20
2022-12-03T21:14:07.523Z,55.10
2022-12-03T21:19:32.462Z,53.28
2022-12-03T21:25:00.446Z,53.10
2022-12-03T21:30:25.472Z,52.35
2022-12-03T21:35:50.441Z,51.55
2022-12-03T21:41:18.433Z,51.47
2022-12-03T21:47:09.508Z,49.88
2022-12-03T21:52:27.491Z,51.22
2022-12-03T21:57:55.443Z,46.97
2022-12-03T22:03:26.450Z,47.03
2022-12-03T22:08:51.521Z,43.67
2022-12-03T22:14:19.504Z,43.08
2022-12-03T22:19:46.471Z,40.65
2022-12-03T22:25:10.465Z,38.22
2022-12-03T22:30:38.503Z,38.95
2022-12-03T22:36:16.426Z,38.25
2022-12-03T22:41:45.480Z,37.55
2022-12-03T22:47:12.476Z,39.05
2022-12-03T22:52:37.539Z,36.88
2022-12-03T22:58:01.466Z,37.80
2022-12-03T23:03:37.584Z,37.97
2022-12-03T23:09:02.454Z,38.40
2022-12-03T23:14:26.458Z,40.45
2022-12-03T23:19:54.790Z,40.55
2022-12-03T23:25:19.592Z,40.00
2022-12-03T23:30:45.514Z,41.10
2022-12-03T23:36:12.502Z,40.90
2022-12-03T23:41:37.467Z,42.03
2022-12-03T23:47:01.611Z,41.85
2022-12-03T23:52:29.498Z,42.28
2022-12-03T23:57:53.480Z,42.90
